sensor_id;sensor_type;location;lat;lon;timestamp;P1;durP1;ratioP1;P2;durP2;ratioP2
43646;SDS011;56152;49.996;18.980;2023-04-29T00:04:22;27.50;;;13.05;;
43646;SDS011;56152;49.996;18.980;2023-04-29T00:09:24;19.05;;;11.18;;
43646;SDS011;56152;49.996;18.980;2023-04-29T00:14:28;29.67;;;15.18;;
43646;SDS011;56152;49.996;18.980;2023-04-29T00:19:32;32.42;;;16.50;;
43646;SDS011;56152;49.996;18.980;2023-04-29T00:24:37;20.67;;;11.18;;
43646;SDS011;56152;49.996;18.980;2023-04-29T00:29:43;30.60;;;15.07;;
43646;SDS011;56152;49.996;18.980;2023-04-29T00:34:45;21.80;;;10.75;;
43646;SDS011;56152;49.996;18.980;2023-04-29T00:39:47;23.23;;;12.48;;
43646;SDS011;56152;49.996;18.980;2023-04-29T00:44:56;20.45;;;10.07;;
43646;SDS011;56152;49.996;18.980;2023-04-29T00:49:58;21.73;;;11.07;;
43646;SDS011;56152;49.996;18.980;2023-04-29T00:55:00;15.35;;;9.30;;
43646;SDS011;56152;49.996;18.980;2023-04-29T01:00:08;18.63;;;10.77;;
43646;SDS011;56152;49.996;18.980;2023-04-29T01:05:14;17.45;;;10.85;;
43646;SDS011;56152;49.996;18.980;2023-04-29T01:10:26;21.05;;;11.70;;
43646;SDS011;56152;49.996;18.980;2023-04-29T01:15:31;22.70;;;13.07;;
43646;SDS011;56152;49.996;18.980;2023-04-29T01:20:38;19.25;;;11.20;;
43646;SDS011;56152;49.996;18.980;2023-04-29T01:25:47;21.70;;;11.60;;
43646;SDS011;56152;49.996;18.980;2023-04-29T01:30:49;20.08;;;12.52;;
43646;SDS011;56152;49.996;18.980;2023-04-29T01:35:59;19.15;;;10.90;;
43646;SDS011;56152;49.996;18.980;2023-04-29T01:41:14;22.10;;;11.82;;
43646;SDS011;56152;49.996;18.980;2023-04-29T01:46:19;22.70;;;12.23;;
43646;SDS011;56152;49.996;18.980;2023-04-29T01:51:32;30.90;;;14.40;;
43646;SDS011;56152;49.996;18.980;2023-04-29T01:56:36;22.40;;;13.15;;
43646;SDS011;56152;49.996;18.980;2023-04-29T02:01:39;25.92;;;13.27;;
43646;SDS011;56152;49.996;18.980;2023-04-29T02:06:42;30.05;;;15.35;;
43646;SDS011;56152;49.996;18.980;2023-04-29T02:11:46;29.88;;;15.43;;
43646;SDS011;56152;49.996;18.980;2023-04-29T02:16:49;24.10;;;14.18;;
43646;SDS011;56152;49.996;18.980;2023-04-29T02:22:02;23.48;;;13.95;;
43646;SDS011;56152;49.996;18.980;2023-04-29T02:27:08;30.52;;;18.60;;
43646;SDS011;56152;49.996;18.980;2023-04-29T02:32:10;34.55;;;19.45;;
43646;SDS011;56152;49.996;18.980;2023-04-29T02:37:14;26.98;;;16.95;;
43646;SDS011;56152;49.996;18.980;2023-04-29T02:42:20;26.65;;;15.05;;
43646;SDS011;56152;49.996;18.980;2023-04-29T02:47:24;20.60;;;12.48;;
43646;SDS011;56152;49.996;18.980;2023-04-29T02:57:33;33.85;;;17.20;;
43646;SDS011;56152;49.996;18.980;2023-04-29T03:02:35;21.70;;;14.02;;
43646;SDS011;56152;49.996;18.980;2023-04-29T03:07:37;27.40;;;15.77;;
43646;SDS011;56152;49.996;18.980;2023-04-29T03:12:43;33.88;;;19.05;;
43646;SDS011;56152;49.996;18.980;2023-04-29T03:17:45;26.08;;;16.60;;
43646;SDS011;56152;49.996;18.980;2023-04-29T03:22:47;25.02;;;13.05;;
43646;SDS011;56152;49.996;18.980;2023-04-29T03:27:50;17.02;;;11.48;;
43646;SDS011;56152;49.996;18.980;2023-04-29T03:32:52;16.45;;;11.85;;
43646;SDS011;56152;49.996;18.980;2023-04-29T03:38:04;20.40;;;11.50;;
43646;SDS011;56152;49.996;18.980;2023-04-29T03:43:16;27.38;;;15.77;;
43646;SDS011;56152;49.996;18.980;2023-04-29T03:48:25;20.63;;;12.38;;
43646;SDS011;56152;49.996;18.980;2023-04-29T03:53:33;18.77;;;12.50;;
43646;SDS011;56152;49.996;18.980;2023-04-29T03:58:38;18.33;;;11.38;;
43646;SDS011;56152;49.996;18.980;2023-04-29T04:03:40;14.98;;;10.57;;
43646;SDS011;56152;49.996;18.980;2023-04-29T04:08:45;21.55;;;11.65;;
43646;SDS011;56152;49.996;18.980;2023-04-29T04:13:49;18.60;;;12.13;;
43646;SDS011;56152;49.996;18.980;2023-04-29T04:18:57;19.30;;;11.73;;
43646;SDS011;56152;49.996;18.980;2023-04-29T04:24:04;17.45;;;11.48;;
43646;SDS011;56152;49.996;18.980;2023-04-29T04:29:09;25.13;;;14.07;;
43646;SDS011;56152;49.996;18.980;2023-04-29T04:34:11;21.55;;;13.00;;
43646;SDS011;56152;49.996;18.980;2023-04-29T04:39:28;17.02;;;11.30;;
43646;SDS011;56152;49.996;18.980;2023-04-29T04:44:32;17.35;;;11.73;;
43646;SDS011;56152;49.996;18.980;2023-04-29T04:49:34;18.63;;;10.93;;
43646;SDS011;56152;49.996;18.980;2023-04-29T04:54:37;14.30;;;9.80;;
43646;SDS011;56152;49.996;18.980;2023-04-29T04:59:40;15.60;;;10.40;;
43646;SDS011;56152;49.996;18.980;2023-04-29T05:04:43;21.33;;;13.15;;
43646;SDS011;56152;49.996;18.980;2023-04-29T05:09:46;18.77;;;12.27;;
43646;SDS011;56152;49.996;18.980;2023-04-29T05:14:53;38.58;;;23.25;;
43646;SDS011;56152;49.996;18.980;2023-04-29T05:19:55;27.35;;;15.48;;
43646;SDS011;56152;49.996;18.980;2023-04-29T05:24:57;20.75;;;13.10;;
43646;SDS011;56152;49.996;18.980;2023-04-29T05:30:04;20.65;;;12.52;;
43646;SDS011;56152;49.996;18.980;2023-04-29T05:35:08;23.23;;;14.93;;
43646;SDS011;56152;49.996;18.980;2023-04-29T05:40:12;15.65;;;11.32;;
43646;SDS011;56152;49.996;18.980;2023-04-29T05:45:17;15.93;;;10.38;;
43646;SDS011;56152;49.996;18.980;2023-04-29T05:50:20;24.48;;;14.48;;
43646;SDS011;56152;49.996;18.980;2023-04-29T05:55:23;12.68;;;9.88;;
43646;SDS011;56152;49.996;18.980;2023-04-29T06:00:27;18.17;;;11.18;;
43646;SDS011;56152;49.996;18.980;2023-04-29T06:05:30;17.05;;;9.98;;
43646;SDS011;56152;49.996;18.980;2023-04-29T06:10:33;18.23;;;11.05;;
43646;SDS011;56152;49.996;18.980;2023-04-29T06:15:41;18.80;;;11.70;;
43646;SDS011;56152;49.996;18.980;2023-04-29T06:20:43;19.05;;;9.98;;
43646;SDS011;56152;49.996;18.980;2023-04-29T06:25:48;15.77;;;10.18;;
43646;SDS011;56152;49.996;18.980;2023-04-29T06:30:53;22.23;;;13.80;;
43646;SDS011;56152;49.996;18.980;2023-04-29T06:35:59;12.18;;;8.48;;
43646;SDS011;56152;49.996;18.980;2023-04-29T06:41:05;20.30;;;12.32;;
43646;SDS011;56152;49.996;18.980;2023-04-29T06:46:09;21.40;;;13.50;;
43646;SDS011;56152;49.996;18.980;2023-04-29T06:51:12;20.38;;;10.52;;
43646;SDS011;56152;49.996;18.980;2023-04-29T06:56:16;11.27;;;9.15;;
43646;SDS011;56152;49.996;18.980;2023-04-29T07:01:21;22.73;;;13.45;;
43646;SDS011;56152;49.996;18.980;2023-04-29T07:06:25;13.50;;;9.90;;
43646;SDS011;56152;49.996;18.980;2023-04-29T07:11:27;15.68;;;9.35;;
43646;SDS011;56152;49.996;18.980;2023-04-29T07:16:32;13.93;;;9.30;;
43646;SDS011;56152;49.996;18.980;2023-04-29T07:21:35;12.45;;;8.63;;
43646;SDS011;56152;49.996;18.980;2023-04-29T07:26:37;11.90;;;7.55;;
43646;SDS011;56152;49.996;18.980;2023-04-29T07:31:43;13.50;;;6.90;;
43646;SDS011;56152;49.996;18.980;2023-04-29T07:36:45;22.35;;;10.18;;
43646;SDS011;56152;49.996;18.980;2023-04-29T07:41:48;14.60;;;9.05;;
43646;SDS011;56152;49.996;18.980;2023-04-29T07:46:53;14.48;;;8.30;;
43646;SDS011;56152;49.996;18.980;2023-04-29T07:51:55;13.32;;;7.22;;
43646;SDS011;56152;49.996;18.980;2023-04-29T07:56:57;14.43;;;8.63;;
43646;SDS011;56152;49.996;18.980;2023-04-29T08:02:02;65.93;;;38.42;;
43646;SDS011;56152;49.996;18.980;2023-04-29T08:07:05;21.65;;;12.13;;
43646;SDS011;56152;49.996;18.980;2023-04-29T08:12:07;23.67;;;11.88;;
43646;SDS011;56152;49.996;18.980;2023-04-29T08:17:13;13.63;;;8.38;;
43646;SDS011;56152;49.996;18.980;2023-04-29T08:22:15;17.17;;;8.13;;
43646;SDS011;56152;49.996;18.980;2023-04-29T08:27:18;14.70;;;7.05;;
43646;SDS011;56152;49.996;18.980;2023-04-29T08:32:23;9.20;;;5.38;;
43646;SDS011;56152;49.996;18.980;2023-04-29T08:37:26;8.93;;;5.18;;
43646;SDS011;56152;49.996;18.980;2023-04-29T08:42:35;15.93;;;8.38;;
43646;SDS011;56152;49.996;18.980;2023-04-29T08:53:04;9.85;;;5.63;;
43646;SDS011;56152;49.996;18.980;2023-04-29T08:58:09;9.80;;;5.88;;
43646;SDS011;56152;49.996;18.980;2023-04-29T09:03:19;13.23;;;6.97;;
43646;SDS011;56152;49.996;18.980;2023-04-29T09:08:29;10.77;;;6.45;;
43646;SDS011;56152;49.996;18.980;2023-04-29T09:13:34;5.82;;;3.95;;
43646;SDS011;56152;49.996;18.980;2023-04-29T09:18:44;10.48;;;4.88;;
43646;SDS011;56152;49.996;18.980;2023-04-29T09:23:49;10.60;;;4.95;;
43646;SDS011;56152;49.996;18.980;2023-04-29T09:29:05;5.78;;;3.28;;
43646;SDS011;56152;49.996;18.980;2023-04-29T09:34:11;7.88;;;4.18;;
43646;SDS011;56152;49.996;18.980;2023-04-29T09:39:14;9.95;;;4.90;;
43646;SDS011;56152;49.996;18.980;2023-04-29T09:44:18;7.60;;;4.00;;
43646;SDS011;56152;49.996;18.980;2023-04-29T09:49:25;7.40;;;3.92;;
43646;SDS011;56152;49.996;18.980;2023-04-29T09:54:28;7.10;;;4.18;;
43646;SDS011;56152;49.996;18.980;2023-04-29T09:59:32;10.05;;;4.85;;
43646;SDS011;56152;49.996;18.980;2023-04-29T10:04:38;8.57;;;4.78;;
43646;SDS011;56152;49.996;18.980;2023-04-29T10:14:49;6.28;;;4.10;;
43646;SDS011;56152;49.996;18.980;2023-04-29T10:20:00;8.70;;;4.50;;
43646;SDS011;56152;49.996;18.980;2023-04-29T10:30:14;12.10;;;6.88;;
43646;SDS011;56152;49.996;18.980;2023-04-29T10:35:19;12.77;;;6.95;;
43646;SDS011;56152;49.996;18.980;2023-04-29T10:40:26;17.90;;;7.45;;
43646;SDS011;56152;49.996;18.980;2023-04-29T10:45:32;10.77;;;6.32;;
43646;SDS011;56152;49.996;18.980;2023-04-29T10:50:58;10.60;;;5.97;;
43646;SDS011;56152;49.996;18.980;2023-04-29T10:56:04;13.35;;;7.10;;
43646;SDS011;56152;49.996;18.980;2023-04-29T11:01:11;13.27;;;7.45;;
43646;SDS011;56152;49.996;18.980;2023-04-29T11:06:15;13.40;;;8.40;;
43646;SDS011;56152;49.996;18.980;2023-04-29T11:11:17;11.90;;;8.48;;
43646;SDS011;56152;49.996;18.980;2023-04-29T11:16:21;22.20;;;9.98;;
43646;SDS011;56152;49.996;18.980;2023-04-29T11:21:31;14.00;;;9.33;;
43646;SDS011;56152;49.996;18.980;2023-04-29T11:26:34;19.10;;;12.30;;
43646;SDS011;56152;49.996;18.980;2023-04-29T11:31:37;17.23;;;10.18;;
43646;SDS011;56152;49.996;18.980;2023-04-29T11:36:40;17.95;;;10.27;;
43646;SDS011;56152;49.996;18.980;2023-04-29T11:41:43;14.88;;;9.43;;
43646;SDS011;56152;49.996;18.980;2023-04-29T11:46:45;14.70;;;9.55;;
43646;SDS011;56152;49.996;18.980;2023-04-29T11:51:50;17.45;;;11.30;;
43646;SDS011;56152;49.996;18.980;2023-04-29T11:56:52;17.92;;;11.02;;
43646;SDS011;56152;49.996;18.980;2023-04-29T12:01:56;12.88;;;8.77;;
43646;SDS011;56152;49.996;18.980;2023-04-29T12:07:01;12.95;;;8.32;;
43646;SDS011;56152;49.996;18.980;2023-04-29T12:12:11;11.65;;;7.95;;
43646;SDS011;56152;49.996;18.980;2023-04-29T12:17:14;12.30;;;7.55;;
43646;SDS011;56152;49.996;18.980;2023-04-29T12:22:21;12.23;;;9.18;;
43646;SDS011;56152;49.996;18.980;2023-04-29T12:27:23;13.23;;;8.32;;
43646;SDS011;56152;49.996;18.980;2023-04-29T12:32:25;13.68;;;9.10;;
43646;SDS011;56152;49.996;18.980;2023-04-29T12:37:38;11.63;;;7.60;;
43646;SDS011;56152;49.996;18.980;2023-04-29T12:42:40;15.95;;;9.35;;
43646;SDS011;56152;49.996;18.980;2023-04-29T12:47:44;16.25;;;8.60;;
43646;SDS011;56152;49.996;18.980;2023-04-29T12:52:53;12.18;;;7.60;;
43646;SDS011;56152;49.996;18.980;2023-04-29T12:57:55;14.35;;;8.07;;
43646;SDS011;56152;49.996;18.980;2023-04-29T13:02:57;11.52;;;6.28;;
43646;SDS011;56152;49.996;18.980;2023-04-29T13:08:03;12.65;;;7.32;;
43646;SDS011;56152;49.996;18.980;2023-04-29T13:13:07;8.32;;;5.85;;
43646;SDS011;56152;49.996;18.980;2023-04-29T13:18:09;10.45;;;6.53;;
43646;SDS011;56152;49.996;18.980;2023-04-29T13:23:13;9.57;;;6.28;;
43646;SDS011;56152;49.996;18.980;2023-04-29T13:28:15;10.45;;;6.70;;
43646;SDS011;56152;49.996;18.980;2023-04-29T13:33:19;10.15;;;6.60;;
43646;SDS011;56152;49.996;18.980;2023-04-29T13:38:30;13.05;;;6.32;;
43646;SDS011;56152;49.996;18.980;2023-04-29T13:43:35;10.25;;;5.97;;
43646;SDS011;56152;49.996;18.980;2023-04-29T13:48:38;7.60;;;5.00;;
43646;SDS011;56152;49.996;18.980;2023-04-29T13:53:43;9.18;;;5.15;;
43646;SDS011;56152;49.996;18.980;2023-04-29T13:58:45;8.40;;;4.55;;
43646;SDS011;56152;49.996;18.980;2023-04-29T14:03:52;8.60;;;5.10;;
43646;SDS011;56152;49.996;18.980;2023-04-29T14:08:57;8.88;;;4.93;;
43646;SDS011;56152;49.996;18.980;2023-04-29T14:13:59;7.57;;;5.70;;
43646;SDS011;56152;49.996;18.980;2023-04-29T14:19:01;7.00;;;4.68;;
43646;SDS011;56152;49.996;18.980;2023-04-29T14:24:08;5.47;;;3.65;;
43646;SDS011;56152;49.996;18.980;2023-04-29T14:29:12;4.75;;;3.65;;
43646;SDS011;56152;49.996;18.980;2023-04-29T14:34:15;5.78;;;3.97;;
43646;SDS011;56152;49.996;18.980;2023-04-29T14:39:20;5.15;;;3.75;;
43646;SDS011;56152;49.996;18.980;2023-04-29T14:44:22;7.57;;;4.90;;
43646;SDS011;56152;49.996;18.980;2023-04-29T14:49:24;5.70;;;4.18;;
43646;SDS011;56152;49.996;18.980;2023-04-29T14:54:35;4.75;;;2.95;;
43646;SDS011;56152;49.996;18.980;2023-04-29T14:59:38;4.68;;;3.45;;
43646;SDS011;56152;49.996;18.980;2023-04-29T15:04:41;5.65;;;3.92;;
43646;SDS011;56152;49.996;18.980;2023-04-29T15:09:46;5.10;;;3.83;;
43646;SDS011;56152;49.996;18.980;2023-04-29T15:14:53;6.30;;;4.38;;
43646;SDS011;56152;49.996;18.980;2023-04-29T15:20:00;10.95;;;6.43;;
43646;SDS011;56152;49.996;18.980;2023-04-29T15:25:07;5.32;;;3.67;;
43646;SDS011;56152;49.996;18.980;2023-04-29T15:30:11;6.18;;;4.78;;
43646;SDS011;56152;49.996;18.980;2023-04-29T15:35:18;9.27;;;5.22;;
43646;SDS011;56152;49.996;18.980;2023-04-29T15:40:22;7.68;;;5.18;;
43646;SDS011;56152;49.996;18.980;2023-04-29T15:45:25;6.95;;;4.70;;
43646;SDS011;56152;49.996;18.980;2023-04-29T15:50:31;6.90;;;5.13;;
43646;SDS011;56152;49.996;18.980;2023-04-29T15:55:37;16.70;;;11.00;;
43646;SDS011;56152;49.996;18.980;2023-04-29T16:00:39;22.17;;;8.20;;
43646;SDS011;56152;49.996;18.980;2023-04-29T16:05:42;13.18;;;8.63;;
43646;SDS011;56152;49.996;18.980;2023-04-29T16:10:49;8.32;;;5.50;;
43646;SDS011;56152;49.996;18.980;2023-04-29T16:15:52;10.88;;;6.78;;
43646;SDS011;56152;49.996;18.980;2023-04-29T16:20:57;11.02;;;6.57;;
43646;SDS011;56152;49.996;18.980;2023-04-29T16:26:01;11.45;;;6.97;;
43646;SDS011;56152;49.996;18.980;2023-04-29T16:31:04;13.20;;;8.57;;
43646;SDS011;56152;49.996;18.980;2023-04-29T16:36:06;12.50;;;7.53;;
43646;SDS011;56152;49.996;18.980;2023-04-29T16:41:09;13.38;;;8.13;;
43646;SDS011;56152;49.996;18.980;2023-04-29T16:46:11;13.90;;;6.75;;
43646;SDS011;56152;49.996;18.980;2023-04-29T16:51:13;12.60;;;6.45;;
43646;SDS011;56152;49.996;18.980;2023-04-29T16:56:17;10.00;;;5.90;;
43646;SDS011;56152;49.996;18.980;2023-04-29T17:01:22;9.35;;;6.55;;
43646;SDS011;56152;49.996;18.980;2023-04-29T17:06:25;10.88;;;7.35;;
43646;SDS011;56152;49.996;18.980;2023-04-29T17:11:28;9.90;;;7.45;;
43646;SDS011;56152;49.996;18.980;2023-04-29T17:16:33;9.43;;;6.35;;
43646;SDS011;56152;49.996;18.980;2023-04-29T17:21:35;11.25;;;6.72;;
43646;SDS011;56152;49.996;18.980;2023-04-29T17:26:39;11.80;;;6.05;;
43646;SDS011;56152;49.996;18.980;2023-04-29T17:31:41;9.05;;;5.50;;
43646;SDS011;56152;49.996;18.980;2023-04-29T17:36:53;7.03;;;4.93;;
43646;SDS011;56152;49.996;18.980;2023-04-29T17:41:57;7.93;;;5.93;;
43646;SDS011;56152;49.996;18.980;2023-04-29T17:47:00;8.35;;;6.10;;
43646;SDS011;56152;49.996;18.980;2023-04-29T17:52:08;10.38;;;6.35;;
43646;SDS011;56152;49.996;18.980;2023-04-29T17:57:18;10.02;;;7.70;;
43646;SDS011;56152;49.996;18.980;2023-04-29T18:02:21;8.25;;;6.57;;
43646;SDS011;56152;49.996;18.980;2023-04-29T18:07:23;12.57;;;8.52;;
43646;SDS011;56152;49.996;18.980;2023-04-29T18:12:36;10.90;;;8.20;;
43646;SDS011;56152;49.996;18.980;2023-04-29T18:17:38;10.25;;;7.15;;
43646;SDS011;56152;49.996;18.980;2023-04-29T18:22:40;13.55;;;10.45;;
43646;SDS011;56152;49.996;18.980;2023-04-29T18:27:45;16.23;;;12.50;;
43646;SDS011;56152;49.996;18.980;2023-04-29T18:32:49;11.40;;;8.43;;
43646;SDS011;56152;49.996;18.980;2023-04-29T18:37:53;11.65;;;8.32;;
43646;SDS011;56152;49.996;18.980;2023-04-29T18:42:57;13.35;;;8.63;;
43646;SDS011;56152;49.996;18.980;2023-04-29T18:47:59;19.30;;;12.63;;
43646;SDS011;56152;49.996;18.980;2023-04-29T18:53:04;14.48;;;10.52;;
43646;SDS011;56152;49.996;18.980;2023-04-29T18:58:08;17.02;;;11.20;;
43646;SDS011;56152;49.996;18.980;2023-04-29T19:03:11;16.80;;;11.63;;
43646;SDS011;56152;49.996;18.980;2023-04-29T19:08:13;24.85;;;15.27;;
43646;SDS011;56152;49.996;18.980;2023-04-29T19:13:18;18.08;;;13.77;;
43646;SDS011;56152;49.996;18.980;2023-04-29T19:18:20;19.85;;;14.15;;
43646;SDS011;56152;49.996;18.980;2023-04-29T19:23:22;23.70;;;17.25;;
43646;SDS011;56152;49.996;18.980;2023-04-29T19:28:26;19.98;;;15.13;;
43646;SDS011;56152;49.996;18.980;2023-04-29T19:33:29;20.25;;;14.93;;
43646;SDS011;56152;49.996;18.980;2023-04-29T19:38:31;30.52;;;18.50;;
43646;SDS011;56152;49.996;18.980;2023-04-29T19:43:35;54.13;;;30.70;;
43646;SDS011;56152;49.996;18.980;2023-04-29T19:48:37;43.65;;;26.88;;
43646;SDS011;56152;49.996;18.980;2023-04-29T19:53:39;26.35;;;19.23;;
43646;SDS011;56152;49.996;18.980;2023-04-29T19:58:45;27.17;;;19.38;;
43646;SDS011;56152;49.996;18.980;2023-04-29T20:03:47;30.08;;;21.17;;
43646;SDS011;56152;49.996;18.980;2023-04-29T20:08:49;34.25;;;22.48;;
43646;SDS011;56152;49.996;18.980;2023-04-29T20:13:52;21.70;;;14.32;;
43646;SDS011;56152;49.996;18.980;2023-04-29T20:18:55;15.73;;;11.43;;
43646;SDS011;56152;49.996;18.980;2023-04-29T20:24:00;14.07;;;10.02;;
43646;SDS011;56152;49.996;18.980;2023-04-29T20:29:06;29.08;;;20.23;;
43646;SDS011;56152;49.996;18.980;2023-04-29T20:34:08;16.38;;;10.57;;
43646;SDS011;56152;49.996;18.980;2023-04-29T20:39:11;16.90;;;10.32;;
43646;SDS011;56152;49.996;18.980;2023-04-29T20:44:14;14.18;;;9.95;;
43646;SDS011;56152;49.996;18.980;2023-04-29T20:49:16;16.48;;;7.75;;
43646;SDS011;56152;49.996;18.980;2023-04-29T20:54:18;26.40;;;12.95;;
43646;SDS011;56152;49.996;18.980;2023-04-29T20:59:26;15.93;;;9.95;;
43646;SDS011;56152;49.996;18.980;2023-04-29T21:04:28;16.83;;;10.98;;
43646;SDS011;56152;49.996;18.980;2023-04-29T21:09:30;36.83;;;18.42;;
43646;SDS011;56152;49.996;18.980;2023-04-29T21:14:36;21.92;;;11.80;;
43646;SDS011;56152;49.996;18.980;2023-04-29T21:19:39;18.25;;;10.80;;
43646;SDS011;56152;49.996;18.980;2023-04-29T21:24:41;10.90;;;8.07;;
43646;SDS011;56152;49.996;18.980;2023-04-29T21:29:48;18.88;;;10.13;;
43646;SDS011;56152;49.996;18.980;2023-04-29T21:34:57;18.50;;;12.02;;
43646;SDS011;56152;49.996;18.980;2023-04-29T21:39:59;15.55;;;10.68;;
43646;SDS011;56152;49.996;18.980;2023-04-29T21:45:05;25.33;;;14.77;;
43646;SDS011;56152;49.996;18.980;2023-04-29T21:50:08;21.50;;;13.82;;
43646;SDS011;56152;49.996;18.980;2023-04-29T21:55:11;19.83;;;13.77;;
43646;SDS011;56152;49.996;18.980;2023-04-29T22:00:15;17.33;;;12.77;;
43646;SDS011;56152;49.996;18.980;2023-04-29T22:05:29;16.92;;;10.88;;
43646;SDS011;56152;49.996;18.980;2023-04-29T22:10:32;17.40;;;12.32;;
43646;SDS011;56152;49.996;18.980;2023-04-29T22:15:35;18.42;;;13.43;;
43646;SDS011;56152;49.996;18.980;2023-04-29T22:20:37;13.05;;;8.77;;
43646;SDS011;56152;49.996;18.980;2023-04-29T22:25:39;16.23;;;10.30;;
43646;SDS011;56152;49.996;18.980;2023-04-29T22:30:43;17.50;;;13.07;;
43646;SDS011;56152;49.996;18.980;2023-04-29T22:35:46;15.32;;;11.98;;
43646;SDS011;56152;49.996;18.980;2023-04-29T22:40:48;13.45;;;10.48;;
43646;SDS011;56152;49.996;18.980;2023-04-29T22:45:52;14.88;;;10.45;;
43646;SDS011;56152;49.996;18.980;2023-04-29T22:50:56;16.65;;;12.32;;
43646;SDS011;56152;49.996;18.980;2023-04-29T22:56:00;15.15;;;10.98;;
43646;SDS011;56152;49.996;18.980;2023-04-29T23:01:07;15.85;;;11.68;;
43646;SDS011;56152;49.996;18.980;2023-04-29T23:06:11;13.50;;;11.07;;
43646;SDS011;56152;49.996;18.980;2023-04-29T23:11:13;16.15;;;10.93;;
43646;SDS011;56152;49.996;18.980;2023-04-29T23:16:17;16.83;;;12.55;;
43646;SDS011;56152;49.996;18.980;2023-04-29T23:21:20;23.25;;;14.63;;
43646;SDS011;56152;49.996;18.980;2023-04-29T23:26:26;18.08;;;12.95;;
43646;SDS011;56152;49.996;18.980;2023-04-29T23:31:33;17.95;;;13.80;;
43646;SDS011;56152;49.996;18.980;2023-04-29T23:36:35;17.40;;;14.45;;
43646;SDS011;56152;49.996;18.980;2023-04-29T23:41:37;14.27;;;12.77;;
43646;SDS011;56152;49.996;18.980;2023-04-29T23:46:41;17.90;;;13.82;;
43646;SDS011;56152;49.996;18.980;2023-04-29T23:51:44;22.15;;;15.40;;
43646;SDS011;56152;49.996;18.980;2023-04-29T23:56:46;17.83;;;12.60;;
